Zion, Illinois
Current Conditions -  °F | °C
As of 1:55 AM on Saturday 29 Nov 2014 (Local Time) from KUGN Reporting Station
Clear Clear  
Wind Chill: 25°   Ceiling: Unl
Heat Index: 32°   Visibility: 7mi
Dew Point: 27°   Wind: 8mph
Humidity: 82%   Direction: 170°S
Pressure: 29.81"   Gusts: NA
Location:  42.44°N, 87.82°W
Report Text: KUGN 290755Z AUTO 17007KT 7SM CLR 00/M03 A2981 RMK AO2 SLP108 T00001028
Loading
Personal Weather Stations






























Interactive Weather Map New forecast layout! Learn more

10-Day Weather Forecast

Advertisements
Track Severe Weather on mobile